Time;durP1;ratioP1;P1;durP2;ratioP2;P2;SDS_P1;SDS_P2;PMS_P1;PMS_P2;Temp;Humidity;BMP_temperature;BMP_pressure;BME280_temperature;BME280_humidity;BME280_pressure;Samples;Min_cycle;Max_cycle;Signal;HPM_P1;HPM_P2
2020/12/22 00:01:47;;;;;;;14.68;5.05;;;;;;;5.78;78.98;99933.75;5101595;28;20020;-69
2020/12/22 00:04:13;;;;;;;5.97;3.25;;;;;;;5.94;78.38;99932.09;5080503;28;642115;-68
2020/12/22 00:06:38;;;;;;;8.48;2.72;;;;;;;6.00;78.04;99919.22;5104129;28;20039;-69
2020/12/22 00:09:03;;;;;;;9.73;3.05;;;;;;;6.06;77.53;99913.25;5103676;28;20027;-69
2020/12/22 00:11:29;;;;;;;4.55;3.17;;;;;;;5.93;77.45;99902.00;5103641;28;20023;-69
2020/12/22 00:13:54;;;;;;;8.82;3.45;;;;;;;5.97;77.47;99902.88;5103388;28;20016;-70
2020/12/22 00:16:20;;;;;;;24.75;3.33;;;;;;;5.82;78.03;99899.41;5103685;28;20020;-70
2020/12/22 00:18:46;;;;;;;10.90;4.50;;;;;;;5.94;77.70;99889.13;5103591;28;20026;-68
2020/12/22 00:21:11;;;;;;;6.30;2.97;;;;;;;5.78;78.40;99882.22;5103543;28;20024;-67
2020/12/22 00:23:37;;;;;;;4.28;2.55;;;;;;;5.84;77.84;99892.56;5103194;28;20035;-68
2020/12/22 00:26:02;;;;;;;10.77;3.50;;;;;;;5.76;77.95;99881.34;5103454;28;20174;-69
2020/12/22 00:28:28;;;;;;;8.88;3.45;;;;;;;5.90;77.38;99876.25;5103251;28;20047;-70
2020/12/22 00:30:53;;;;;;;13.07;4.28;;;;;;;5.87;77.35;99866.78;5103530;28;20024;-69
2020/12/22 00:33:19;;;;;;;7.35;3.05;;;;;;;5.83;77.78;99857.34;5103132;28;20016;-69
2020/12/22 00:35:44;;;;;;;6.97;3.03;;;;;;;5.76;77.52;99853.91;5103350;28;20044;-69
2020/12/22 00:38:09;;;;;;;11.02;3.33;;;;;;;5.78;77.80;99847.00;5103390;28;20079;-68
2020/12/22 00:40:35;;;;;;;21.55;4.65;;;;;;;5.64;78.11;99839.25;5103352;28;20031;-69
2020/12/22 00:43:02;;;;;;;6.97;2.67;;;;;;;5.83;77.55;99819.56;5103089;28;20095;-67
2020/12/22 00:45:29;;;;;;;4.72;2.00;;;;;;;5.84;77.10;99823.00;5103402;28;20024;-68
2020/12/22 00:47:55;;;;;;;7.10;4.03;;;;;;;5.65;77.81;99825.53;5103469;28;20020;-69
2020/12/22 00:50:20;;;;;;;6.30;3.75;;;;;;;5.79;77.39;99815.25;5103301;28;20020;-69
2020/12/22 00:52:46;;;;;;;12.77;4.85;;;;;;;5.66;77.60;99816.94;5102927;28;20027;-70
2020/12/22 00:55:11;;;;;;;13.57;4.32;;;;;;;5.57;78.10;99811.78;5103214;28;20051;-70
2020/12/22 00:57:36;;;;;;;9.88;2.83;;;;;;;5.77;77.32;99810.94;5102738;28;20239;-69
2020/12/22 01:00:06;;;;;;;8.35;2.67;;;;;;;5.57;78.05;99786.03;5103415;28;20137;-69
2020/12/22 01:02:32;;;;;;;9.50;2.85;;;;;;;5.80;76.88;99793.78;5103138;28;20342;-69
2020/12/22 01:04:58;;;;;;;7.72;3.90;;;;;;;5.60;77.63;99791.19;5103018;28;20480;-70
2020/12/22 01:07:24;;;;;;;16.63;4.72;;;;;;;5.41;78.68;99790.28;5103003;28;20039;-70
2020/12/22 01:09:49;;;;;;;3.47;2.03;;;;;;;5.65;78.00;99774.03;5103085;28;20035;-69
2020/12/22 01:12:14;;;;;;;5.57;2.97;;;;;;;5.53;78.36;99771.41;5102492;28;20032;-69
2020/12/22 01:14:40;;;;;;;5.72;2.78;;;;;;;5.49;78.43;99772.28;5103061;28;20028;-69
2020/12/22 01:17:05;;;;;;;10.52;2.83;;;;;;;5.38;79.11;99770.53;5103068;28;20028;-69
2020/12/22 01:19:30;;;;;;;9.07;2.92;;;;;;;5.53;78.42;99768.84;5103142;28;20020;-68
2020/12/22 01:21:57;;;;;;;7.05;2.58;;;;;;;5.80;76.77;99756.84;5102806;28;20058;-67
2020/12/22 01:24:23;;;;;;;22.30;5.50;;;;;;;5.53;78.18;99766.25;5102962;28;20024;-68
2020/12/22 01:26:49;;;;;;;10.30;2.90;;;;;;;5.63;77.71;99744.84;5103096;28;20028;-68
2020/12/22 01:29:15;;;;;;;11.52;4.18;;;;;;;5.35;78.59;99743.94;5102587;28;20038;-69
2020/12/22 01:31:40;;;;;;;14.05;3.33;;;;;;;5.39;78.30;99732.78;5102678;28;20048;-68
2020/12/22 01:34:06;;;;;;;8.57;2.78;;;;;;;5.44;78.46;99734.50;5102780;28;20054;-68
2020/12/22 01:36:31;;;;;;;7.97;4.20;;;;;;;5.25;78.98;99718.16;5106179;28;20028;-69
2020/12/22 01:38:57;;;;;;;12.55;3.85;;;;;;;5.24;79.24;99715.59;5106167;28;20064;-69
2020/12/22 01:41:23;;;;;;;9.00;3.35;;;;;;;5.53;78.40;99717.34;5105394;28;20040;-70
2020/12/22 01:44:10;;;;;;;10.27;3.90;;;;;;;5.41;78.86;99705.31;5105574;28;20016;-69
2020/12/22 01:46:36;;;;;;;18.17;4.65;;;;;;;5.45;78.17;99707.03;5106270;28;20060;-69
2020/12/22 01:49:03;;;;;;;9.25;2.63;;;;;;;5.55;77.88;99700.19;5106424;28;20059;-69
2020/12/22 01:51:30;;;;;;;7.38;3.38;;;;;;;5.64;77.31;99704.50;5106224;28;20024;-68
2020/12/22 01:53:56;;;;;;;14.38;3.60;;;;;;;5.08;79.74;99700.09;5106331;28;20059;-70
2020/12/22 01:56:22;;;;;;;7.55;3.70;;;;;;;5.18;79.84;99695.84;5106110;28;20035;-69
2020/12/22 01:58:48;;;;;;;7.97;4.00;;;;;;;5.17;79.67;99689.84;5105959;28;20024;-69
2020/12/22 02:01:13;;;;;;;5.68;2.35;;;;;;;5.55;78.02;99683.03;5106413;28;20071;-69
2020/12/22 02:03:38;;;;;;;8.45;2.63;;;;;;;5.56;77.80;99689.00;5106113;28;20028;-69
2020/12/22 02:06:04;;;;;;;5.70;2.08;;;;;;;5.51;77.68;99673.56;5106022;28;20056;-69
2020/12/22 02:08:29;;;;;;;3.83;2.70;;;;;;;5.53;77.32;99681.28;5106055;28;20024;-70
2020/12/22 02:10:54;;;;;;;7.35;3.28;;;;;;;5.02;79.66;99664.94;5106205;28;20020;-71
2020/12/22 02:13:20;;;;;;;6.85;2.22;;;;;;;5.29;78.73;99657.25;5105848;28;20020;-69
2020/12/22 02:15:45;;;;;;;8.52;2.45;;;;;;;5.50;77.88;99665.84;5106043;28;20448;-69
2020/12/22 02:18:11;;;;;;;4.25;2.05;;;;;;;5.39;78.21;99650.41;5106104;28;20050;-69
2020/12/22 02:20:37;;;;;;;5.88;1.88;;;;;;;5.34;78.75;99652.97;5106174;28;20102;-69
2020/12/22 02:23:02;;;;;;;8.15;2.53;;;;;;;5.43;77.61;99652.97;5104557;28;20016;-70
2020/12/22 02:25:28;;;;;;;12.68;4.13;;;;;;;5.23;78.63;99639.22;5106121;28;20107;-70
2020/12/22 02:27:53;;;;;;;12.73;2.67;;;;;;;5.29;78.16;99631.50;5105353;28;20487;-69
2020/12/22 02:30:19;;;;;;;6.03;2.15;;;;;;;5.43;77.61;99623.81;5104870;28;20016;-68
2020/12/22 02:32:44;;;;;;;12.45;3.95;;;;;;;5.31;78.28;99622.09;5104315;28;20054;-69
2020/12/22 02:35:09;;;;;;;6.25;2.28;;;;;;;5.39;78.19;99624.66;5106125;28;20364;-69
2020/12/22 02:37:35;;;;;;;2.55;1.63;;;;;;;5.55;76.89;99607.50;5106033;28;20031;-70
2020/12/22 02:40:00;;;;;;;7.25;2.50;;;;;;;5.54;76.67;99590.34;5105766;28;20027;-69
2020/12/22 02:42:25;;;;;;;6.00;2.72;;;;;;;5.26;78.02;99582.59;5105343;28;20478;-69
2020/12/22 02:44:51;;;;;;;5.10;2.85;;;;;;;5.35;77.75;99571.47;5105284;28;20080;-69
2020/12/22 02:47:16;;;;;;;7.82;2.40;;;;;;;5.32;78.07;99554.28;5102488;28;20087;-70
2020/12/22 02:49:43;;;;;;;5.60;2.33;;;;;;;5.27;78.47;99577.47;5105183;28;20032;-69
2020/12/22 02:52:09;;;;;;;4.75;2.05;;;;;;;5.35;78.07;99554.31;5104775;28;20438;-69
2020/12/22 02:54:35;;;;;;;4.45;2.85;;;;;;;5.30;77.79;99550.88;5103748;28;20035;-69
2020/12/22 02:57:00;;;;;;;9.40;3.30;;;;;;;5.43;77.16;99539.69;5104994;28;20111;-69
2020/12/22 02:59:26;;;;;;;12.27;3.45;;;;;;;5.19;78.45;99538.88;5103433;28;20376;-70
2020/12/22 03:01:51;;;;;;;4.00;2.10;;;;;;;5.58;77.25;99540.53;5104982;28;20028;-69
2020/12/22 03:04:16;;;;;;;4.35;2.38;;;;;;;5.36;77.78;99537.13;5104912;28;20040;-69
2020/12/22 03:06:42;;;;;;;5.38;2.30;;;;;;;5.32;77.86;99523.41;5104982;28;20034;-69
2020/12/22 03:09:08;;;;;;;6.63;2.25;;;;;;;5.37;77.65;99511.41;5104991;28;20023;-69
2020/12/22 03:11:34;;;;;;;10.40;3.20;;;;;;;5.13;78.89;99517.44;5104504;28;20032;-69
2020/12/22 03:13:59;;;;;;;6.43;1.83;;;;;;;5.29;78.46;99507.97;5104571;28;20048;-68
2020/12/22 03:16:25;;;;;;;8.32;3.90;;;;;;;4.93;80.07;99508.88;5104703;28;20020;-69
2020/12/22 03:18:50;;;;;;;5.53;2.70;;;;;;;5.44;77.61;99500.25;5103474;28;20024;-69
2020/12/22 03:21:16;;;;;;;4.25;2.40;;;;;;;5.31;78.50;99499.41;5104580;28;20038;-68
2020/12/22 03:23:42;;;;;;;4.90;2.65;;;;;;;5.17;78.75;99485.69;5104367;28;20028;-69
2020/12/22 03:26:08;;;;;;;8.65;2.30;;;;;;;5.12;79.15;99482.25;5104509;28;20049;-68
2020/12/22 03:28:33;;;;;;;5.38;2.95;;;;;;;5.15;78.53;99475.41;5104177;28;20020;-68
2020/12/22 03:30:58;;;;;;;10.27;4.25;;;;;;;4.99;79.21;99461.69;5104317;28;20397;-69
2020/12/22 03:33:24;;;;;;;9.95;3.55;;;;;;;4.93;80.05;99444.56;5104216;28;20020;-68
2020/12/22 03:35:50;;;;;;;7.88;3.00;;;;;;;5.23;78.66;99452.22;5104330;28;20024;-68
2020/12/22 03:38:15;;;;;;;8.20;3.28;;;;;;;5.21;78.16;99439.38;5104232;28;20013;-68
2020/12/22 03:40:41;;;;;;;5.43;1.73;;;;;;;5.26;78.54;99430.75;5104362;28;20216;-67
2020/12/22 03:43:06;;;;;;;7.25;3.20;;;;;;;5.16;78.51;99435.09;5102551;28;20016;-68
2020/12/22 03:45:32;;;;;;;4.82;2.30;;;;;;;5.27;78.24;99423.03;5104194;28;20035;-69
2020/12/22 03:47:57;;;;;;;5.10;2.17;;;;;;;5.12;78.77;99408.50;5104140;28;20047;-69
2020/12/22 03:50:23;;;;;;;15.52;3.10;;;;;;;4.93;79.41;99413.69;5104175;28;20024;-69
2020/12/22 03:52:48;;;;;;;7.55;3.03;;;;;;;5.23;78.60;99410.19;5102624;28;20046;-69
2020/12/22 03:55:14;;;;;;;5.75;1.67;;;;;;;4.96;79.68;99411.13;5104011;28;20027;-70
2020/12/22 03:57:39;;;;;;;7.13;2.00;;;;;;;4.89;80.13;99413.72;5103388;28;20024;-69
2020/12/22 04:00:06;;;;;;;11.05;2.80;;;;;;;4.77;80.68;99411.97;5103893;28;20073;-69
2020/12/22 04:02:31;;;;;;;7.15;3.10;;;;;;;4.86;80.64;99406.00;5103772;28;20027;-69
2020/12/22 04:04:57;;;;;;;7.40;3.22;;;;;;;4.80;80.71;99393.97;5103526;28;20063;-71
2020/12/22 04:07:22;;;;;;;6.38;2.22;;;;;;;4.92;80.30;99381.09;5103678;28;20020;-70
2020/12/22 04:09:47;;;;;;;4.60;2.70;;;;;;;4.89;80.23;99387.97;5103656;28;20050;-69
2020/12/22 04:12:13;;;;;;;7.22;2.83;;;;;;;4.80;81.01;99386.25;5103232;28;20103;-69
2020/12/22 04:14:38;;;;;;;10.52;3.30;;;;;;;4.65;82.01;99385.41;5103439;28;20030;-68
2020/12/22 04:17:03;;;;;;;8.30;3.95;;;;;;;4.60;82.15;99389.69;5103596;28;20247;-69
2020/12/22 04:19:29;;;;;;;5.60;2.60;;;;;;;4.76;81.47;99387.97;5103321;28;20032;-68
2020/12/22 04:21:55;;;;;;;7.20;2.80;;;;;;;4.52;82.63;99370.88;5103259;28;20016;-69
2020/12/22 04:24:20;;;;;;;6.00;2.80;;;;;;;4.59;82.82;99368.28;5103083;28;20054;-69
2020/12/22 04:26:45;;;;;;;5.43;2.47;;;;;;;4.56;82.42;99350.31;5103417;28;20024;-68
2020/12/22 04:29:11;;;;;;;10.90;4.28;;;;;;;4.41;83.33;99351.16;5102978;28;20020;-68
2020/12/22 04:31:36;;;;;;;5.70;2.90;;;;;;;4.57;83.09;99344.28;5101895;28;20492;-67
2020/12/22 04:34:02;;;;;;;8.77;3.55;;;;;;;4.23;84.26;99334.03;5101868;28;20020;-67
2020/12/22 04:36:27;;;;;;;3.72;2.20;;;;;;;4.59;83.61;99337.44;5103365;28;20102;-67
2020/12/22 04:38:54;;;;;;;8.57;4.32;;;;;;;4.57;82.99;99323.72;5103378;28;20020;-68
2020/12/22 04:41:22;;;;;;;12.27;4.97;;;;;;;4.52;83.68;99319.47;5103195;28;20020;-69
2020/12/22 04:43:49;;;;;;;6.47;3.55;;;;;;;4.41;84.24;99296.34;5102877;28;20024;-69
2020/12/22 04:46:22;;;;;;;12.02;4.95;;;;;;;4.33;84.67;99311.75;5103365;28;20070;-69
2020/12/22 04:48:56;;;;;;;7.93;2.95;;;;;;;4.52;84.19;99291.19;5103293;28;20024;-71
2020/12/22 04:51:23;;;;;;;11.75;5.50;;;;;;;4.70;83.40;99291.13;5103070;28;20103;-72
2020/12/22 04:53:49;;;;;;;11.18;4.38;;;;;;;4.64;83.56;99274.88;5103033;28;20020;-73
2020/12/22 04:56:15;;;;;;;10.05;3.08;;;;;;;4.68;83.17;99280.00;5101597;28;20495;-73
2020/12/22 04:58:41;;;;;;;12.48;5.47;;;;;;;4.52;83.64;99265.47;5103045;28;20034;-73
2020/12/22 05:01:06;;;;;;;8.90;4.78;;;;;;;4.33;85.24;99252.66;5103140;28;20480;-72
2020/12/22 05:03:32;;;;;;;8.30;4.15;;;;;;;4.57;84.47;99267.19;5102910;28;20031;-71
2020/12/22 05:05:57;;;;;;;11.30;6.03;;;;;;;4.53;84.47;99254.34;5102804;28;20051;-70
2020/12/22 05:08:23;;;;;;;20.02;6.78;;;;;;;4.45;84.53;99237.22;5102946;28;20086;-70
2020/12/22 05:10:50;;;;;;;8.25;4.25;;;;;;;4.62;84.21;99236.31;5105215;28;20023;-72
2020/12/22 05:13:17;;;;;;;9.50;4.38;;;;;;;4.49;85.13;99237.22;5106359;28;20012;-72
2020/12/22 05:15:50;;;;;;;6.70;3.25;;;;;;;4.62;84.96;99228.59;5105418;28;20066;-74
2020/12/22 05:18:20;;;;;;;6.28;3.85;;;;;;;4.65;84.77;99205.44;5106657;28;20052;-75
2020/12/22 05:20:46;;;;;;;19.10;7.05;;;;;;;4.49;85.06;99216.66;5106693;28;20036;-72
2020/12/22 05:23:13;;;;;;;8.50;3.38;;;;;;;4.78;84.44;99213.09;5106667;28;20081;-70
2020/12/22 05:25:40;;;;;;;10.43;2.97;;;;;;;4.87;83.83;99218.25;5106686;28;20088;-71
2020/12/22 05:28:07;;;;;;;10.65;4.00;;;;;;;4.88;83.78;99211.38;5106298;28;20024;-71
2020/12/22 05:30:33;;;;;;;10.25;4.80;;;;;;;4.85;84.27;99214.81;5106510;28;20024;-71
2020/12/22 05:32:58;;;;;;;6.25;3.70;;;;;;;4.83;84.23;99212.25;5106243;28;20028;-69
2020/12/22 05:35:24;;;;;;;15.63;7.35;;;;;;;4.67;84.64;99193.44;5106626;28;20039;-70
2020/12/22 05:37:51;;;;;;;9.00;4.13;;;;;;;4.82;84.53;99201.97;5105122;28;20351;-70
2020/12/22 05:40:20;;;;;;;5.25;3.47;;;;;;;4.91;84.28;99185.63;5106158;28;20024;-71
2020/12/22 05:42:46;;;;;;;8.98;3.88;;;;;;;4.88;84.74;99193.34;5103838;28;20028;-70
2020/12/22 05:45:12;;;;;;;6.38;3.10;;;;;;;4.95;84.01;99188.19;5106208;28;20073;-68
2020/12/22 05:47:37;;;;;;;8.27;3.00;;;;;;;4.93;84.20;99165.91;5106399;28;20028;-69
2020/12/22 05:50:03;;;;;;;17.33;7.30;;;;;;;4.74;84.85;99176.28;5106086;28;20299;-71
2020/12/22 05:52:30;;;;;;;13.77;4.78;;;;;;;4.84;84.71;99169.38;5105787;28;20051;-71
2020/12/22 05:54:57;;;;;;;9.55;3.90;;;;;;;4.83;84.95;99153.09;5104348;28;20050;-71
2020/12/22 05:57:30;;;;;;;7.55;3.70;;;;;;;4.76;85.12;99169.41;5105649;28;20028;-76
2020/12/22 05:59:57;;;;;;;11.43;5.45;;;;;;;4.62;85.75;99161.75;5105693;28;20024;-73
2020/12/22 06:02:30;;;;;;;9.32;3.58;;;;;;;4.74;85.62;99160.00;5105570;28;20085;-72
2020/12/22 06:05:00;;;;;;;8.05;2.90;;;;;;;4.91;85.07;99149.63;5105446;28;20059;-72
2020/12/22 06:07:29;;;;;;;5.63;2.67;;;;;;;4.93;84.94;99153.91;5105700;28;20024;-72
2020/12/22 06:09:56;;;;;;;8.02;3.45;;;;;;;4.68;85.67;99145.47;5105489;28;20031;-72
2020/12/22 06:12:22;;;;;;;7.47;3.90;;;;;;;4.90;84.82;99122.22;5105208;28;20021;-72
2020/12/22 06:14:53;;;;;;;12.93;4.75;;;;;;;4.76;84.85;99128.25;5105513;28;20272;-71
2020/12/22 06:17:20;;;;;;;8.75;3.15;;;;;;;4.80;85.31;99131.69;5105334;28;20059;-73
2020/12/22 06:19:46;;;;;;;3.45;2.22;;;;;;;4.87;84.96;99130.81;5105430;28;20027;-70
2020/12/22 06:22:18;;;;;;;9.18;3.72;;;;;;;4.80;85.93;99127.41;5105135;28;20035;-70
2020/12/22 06:24:45;;;;;;;5.25;3.13;;;;;;;4.99;84.27;99132.44;5105323;28;20032;-70
2020/12/22 06:27:13;;;;;;;4.72;3.17;;;;;;;4.79;85.30;99128.25;5105655;28;20019;-71
2020/12/22 06:29:44;;;;;;;3.65;2.15;;;;;;;4.87;84.45;99105.09;5103836;28;20044;-73
2020/12/22 06:32:27;;;;;;;0.30;0.30;;;;;;;4.66;85.63;99117.19;5105236;28;20024;-71
2020/12/22 06:34:54;;;;;;;0.20;0.20;;;;;;;4.53;85.64;99111.25;5105165;28;20070;-73
2020/12/22 06:37:20;;;;;;;0.30;0.30;;;;;;;4.71;84.99;99104.31;5105230;28;20024;-74
2020/12/22 06:39:48;;;;;;;0.30;0.30;;;;;;;4.63;85.35;99109.50;5105345;28;20069;-74
2020/12/22 06:42:28;;;;;;;0.28;0.28;;;;;;;4.61;85.72;99106.06;5105015;28;20035;-72
2020/12/22 06:44:54;;;;;;;0.40;0.40;;;;;;;4.57;85.93;99082.09;5104991;28;20024;-73
2020/12/22 06:47:33;;;;;;;0.30;0.30;;;;;;;4.44;86.33;99091.56;5104865;28;20032;-72
2020/12/22 06:49:59;;;;;;;0.30;0.30;;;;;;;4.59;85.36;99094.94;5104970;28;20020;-73
2020/12/22 06:52:36;;;;;;;0.30;0.30;;;;;;;4.53;85.95;99095.84;5104609;28;20027;-72
2020/12/22 06:55:07;;;;;;;0.30;0.30;;;;;;;4.49;86.17;99088.97;5105014;28;20035;-73
2020/12/22 06:57:49;;;;;;;0.30;0.30;;;;;;;4.47;86.33;99089.00;5104504;28;20071;-72
2020/12/22 07:00:36;;;;;;;0.30;0.30;;;;;;;4.56;86.13;99084.66;5104787;28;20099;-74
2020/12/22 07:03:22;;;;;;;0.20;0.20;;;;;;;4.58;85.53;99067.53;5103074;28;20044;-72
2020/12/22 07:05:48;;;;;;;0.22;0.22;;;;;;;4.43;86.11;99069.31;5104493;28;20335;-71
2020/12/22 07:08:15;;;;;;;0.30;0.30;;;;;;;4.56;85.77;99058.97;5104777;28;20051;-71
2020/12/22 07:10:46;;;;;;;0.30;0.30;;;;;;;4.57;85.84;99070.94;5104450;28;20492;-71
2020/12/22 07:13:13;;;;;;;0.30;0.30;;;;;;;4.49;85.59;99062.44;5104020;28;20035;-71
2020/12/22 07:15:48;;;;;;;0.30;0.30;;;;;;;4.55;85.26;99060.66;5104558;28;20024;-71
2020/12/22 07:18:42;;;;;;;0.30;0.30;;;;;;;4.74;84.50;99052.00;5103147;28;20099;-70
2020/12/22 07:21:08;;;;;;;0.25;0.25;;;;;;;4.35;85.84;99060.78;5101855;28;20031;-70
2020/12/22 07:23:34;;;;;;;0.20;0.20;;;;;;;4.50;85.16;99057.28;5102707;28;20028;-70
2020/12/22 07:26:00;;;;;;;0.30;0.30;;;;;;;4.27;86.12;99057.38;5104214;28;20020;-70
2020/12/22 07:28:26;;;;;;;0.30;0.30;;;;;;;4.18;86.84;99042.88;5104150;28;20016;-75
2020/12/22 07:30:51;;;;;;;0.30;0.30;;;;;;;4.46;86.11;99051.31;5104303;28;20015;-76
2020/12/22 07:33:19;;;;;;;0.30;0.30;;;;;;;4.55;85.42;99031.56;5101985;28;20038;-69
2020/12/22 07:35:48;;;;;;;0.20;0.20;;;;;;;4.45;85.68;99039.34;5103871;28;20028;-69
2020/12/22 07:38:13;;;;;;;0.30;0.30;;;;;;;4.33;86.54;99047.09;5103073;28;20032;-70
2020/12/22 07:40:41;;;;;;;0.30;0.30;;;;;;;4.50;86.33;99030.72;5103101;28;20515;-69
2020/12/22 07:43:13;;;;;;;0.30;0.30;;;;;;;4.27;86.79;99034.25;5103247;28;20024;-69
2020/12/22 07:45:50;;;;;;;0.20;0.20;;;;;;;4.45;85.99;99030.75;5103830;28;20495;-68
2020/12/22 07:48:16;;;;;;;0.30;0.30;;;;;;;4.48;85.72;99017.88;5103879;28;20028;-68
2020/12/22 07:50:41;;;;;;;0.20;0.20;;;;;;;4.56;85.26;99007.56;5103747;28;20024;-69
2020/12/22 07:53:06;;;;;;;0.30;0.30;;;;;;;4.63;84.63;99006.66;5102201;28;20404;-69
2020/12/22 07:55:37;;;;;;;0.20;0.20;;;;;;;4.31;85.90;99008.53;5103766;28;20024;-74
2020/12/22 07:58:04;;;;;;;0.30;0.30;;;;;;;4.52;85.36;99001.56;5103441;28;20013;-69
2020/12/22 08:00:29;;;;;;;0.30;0.30;;;;;;;4.52;85.32;98991.28;5103633;28;20069;-70
2020/12/22 08:02:55;;;;;;;0.30;0.30;;;;;;;4.39;86.29;98995.69;5103342;28;20015;-69
2020/12/22 08:05:20;;;;;;;0.30;0.30;;;;;;;4.37;86.25;98988.81;5103556;28;20111;-69
2020/12/22 08:07:51;;;;;;;0.50;0.50;;;;;;;4.53;85.69;98981.88;5103410;28;20023;-70
2020/12/22 08:10:17;;;;;;;0.30;0.30;;;;;;;4.41;86.14;98980.25;5103301;28;20435;-70
2020/12/22 08:12:44;;;;;;;0.30;0.30;;;;;;;4.45;85.96;98974.22;5101689;28;20369;-70
2020/12/22 08:15:10;;;;;;;0.20;0.20;;;;;;;4.49;85.73;98977.63;5103436;28;20107;-70
2020/12/22 08:17:40;;;;;;;0.20;0.20;;;;;;;4.32;86.76;98978.56;5103394;28;20372;-70
2020/12/22 08:20:07;;;;;;;0.30;0.30;;;;;;;4.49;86.53;98970.75;5103661;28;20028;-70
2020/12/22 08:22:32;;;;;;;0.30;0.30;;;;;;;4.50;86.28;98966.47;5102915;28;20016;-71
2020/12/22 08:25:00;;;;;;;0.28;0.28;;;;;;;4.41;86.56;98975.94;5103233;28;20027;-71
2020/12/22 08:27:26;;;;;;;0.30;0.30;;;;;;;4.59;86.23;98972.41;5103297;28;20028;-70
2020/12/22 08:29:51;;;;;;;0.30;0.30;;;;;;;4.45;86.73;98961.38;5103112;28;20450;-71
2020/12/22 08:32:23;;;;;;;0.30;0.30;;;;;;;4.51;86.65;98952.75;5102176;28;20027;-69
2020/12/22 08:34:52;;;;;;;;;;;;;;;4.46;87.08;98958.78;5102880;28;20432;-71
2020/12/22 08:37:18;;;;;;;0.30;0.30;;;;;;;4.43;86.98;98966.53;5102387;28;19919;-71
2020/12/22 08:39:44;;;;;;;0.20;0.20;;;;;;;4.45;87.76;98969.09;5103419;28;20028;-71
2020/12/22 08:42:10;;;;;;;0.30;0.30;;;;;;;4.43;87.49;98953.69;5103060;28;20023;-71
2020/12/22 08:44:37;;;;;;;0.30;0.30;;;;;;;4.56;87.08;98949.31;5105316;28;20028;-72
2020/12/22 08:47:13;;;;;;;1.75;1.65;;;;;;;4.41;87.85;98968.25;5107464;28;20024;-72
2020/12/22 08:49:39;;;;;;;0.30;0.30;;;;;;;4.57;87.10;98958.72;5107276;28;20023;-72
2020/12/22 08:52:10;;;;;;;0.30;0.30;;;;;;;4.49;87.54;98959.66;5107260;28;20084;-70
2020/12/22 08:54:35;;;;;;;0.40;0.40;;;;;;;4.55;87.23;98951.88;5107401;28;20051;-71
2020/12/22 08:57:14;;;;;;;0.30;0.30;;;;;;;4.67;87.12;98962.06;5106920;28;20495;-72
2020/12/22 08:59:40;;;;;;;0.30;0.30;;;;;;;4.68;87.12;98956.06;5106818;28;20027;-70
2020/12/22 09:02:06;;;;;;;0.20;0.20;;;;;;;4.58;87.37;98960.41;5107112;28;20051;-70
2020/12/22 09:04:33;;;;;;;0.30;0.30;;;;;;;4.39;88.11;98970.00;5105402;28;20528;-72
2020/12/22 09:06:59;;;;;;;0.25;0.25;;;;;;;4.62;87.70;98961.25;5106936;28;20020;-70
2020/12/22 09:09:27;;;;;;;0.30;0.30;;;;;;;4.70;87.37;98963.75;5107007;28;20042;-71
2020/12/22 09:12:02;;;;;;;0.30;0.30;;;;;;;4.52;87.97;98957.06;5106850;28;20473;-73
2020/12/22 09:14:38;;;;;;;0.30;0.30;;;;;;;4.64;87.99;98961.22;5105348;28;20235;-72
2020/12/22 09:17:04;;;;;;;0.20;0.20;;;;;;;4.59;88.14;98958.69;5106818;28;20027;-72
2020/12/22 09:19:49;;;;;;;0.30;0.30;;;;;;;4.63;87.97;98952.69;5105732;28;20044;-75
2020/12/22 09:22:20;;;;;;;0.30;0.30;;;;;;;4.68;87.88;98953.47;5106491;28;20485;-72
2020/12/22 09:24:49;;;;;;;0.30;0.30;;;;;;;4.58;88.08;98942.41;5106930;28;20023;-72
2020/12/22 09:27:15;;;;;;;0.25;0.25;;;;;;;4.52;88.72;98944.19;5106707;28;20036;-72
2020/12/22 09:29:42;;;;;;;0.30;0.30;;;;;;;4.56;88.82;98946.72;5106239;28;20090;-72
2020/12/22 09:32:10;;;;;;;0.30;0.30;;;;;;;4.83;87.67;98934.53;5106504;28;20028;-71
2020/12/22 09:34:37;;;;;;;0.30;0.30;;;;;;;4.91;87.45;98931.88;5107001;28;20024;-72
2020/12/22 09:37:06;;;;;;;0.30;0.30;;;;;;;4.66;88.11;98932.09;5106652;28;20024;-73
2020/12/22 09:39:33;;;;;;;0.30;0.30;;;;;;;4.80;87.78;98926.84;5106521;28;20020;-71
2020/12/22 09:41:59;;;;;;;0.30;0.30;;;;;;;4.66;88.50;98926.97;5105794;28;20044;-72
2020/12/22 09:44:25;;;;;;;0.30;0.30;;;;;;;4.58;88.99;98923.59;5105549;28;20059;-71
2020/12/22 09:46:54;;;;;;;0.30;0.30;;;;;;;4.85;88.32;98919.06;5106402;28;20020;-69
2020/12/22 09:49:21;;;;;;;0.30;0.30;;;;;;;4.71;88.58;98925.19;5106589;28;20063;-70
2020/12/22 09:51:47;;;;;;;0.30;0.30;;;;;;;4.58;89.40;98932.13;5106474;28;20026;-71
2020/12/22 09:54:13;;;;;;;0.30;0.30;;;;;;;4.81;88.34;98930.25;5106850;28;20043;-71
2020/12/22 09:56:41;;;;;;;0.30;0.30;;;;;;;4.68;89.11;98920.06;5105988;28;20016;-72
2020/12/22 09:59:06;;;;;;;0.30;0.30;;;;;;;4.73;88.91;98925.16;5105824;28;20034;-72
2020/12/22 10:01:32;;;;;;;0.30;0.30;;;;;;;4.86;88.47;98918.19;5105712;28;20039;-71
2020/12/22 10:03:57;;;;;;;0.30;0.30;;;;;;;4.91;88.45;98919.03;5105999;28;20035;-69
2020/12/22 10:06:24;;;;;;;0.30;0.30;;;;;;;4.83;88.55;98913.09;5106748;28;20023;-71
2020/12/22 10:08:51;;;;;;;0.30;0.30;;;;;;;4.75;89.02;98912.28;5106176;28;20032;-71
2020/12/22 10:11:18;;;;;;;0.30;0.30;;;;;;;4.96;88.13;98909.53;5106224;28;20027;-71
2020/12/22 10:13:44;;;;;;;0.30;0.30;;;;;;;4.79;89.11;98909.69;5105879;28;20225;-72
2020/12/22 10:16:12;;;;;;;0.30;0.30;;;;;;;4.87;88.75;98912.22;5106344;28;20031;-71
2020/12/22 10:18:38;;;;;;;0.30;0.30;;;;;;;4.64;89.68;98908.13;5106238;28;20095;-72
2020/12/22 10:21:06;;;;;;;0.30;0.30;;;;;;;4.63;90.16;98906.41;5106160;28;20055;-71
2020/12/22 10:23:32;;;;;;;0.30;0.30;;;;;;;4.94;89.06;98907.84;5105487;28;20028;-71
2020/12/22 10:25:57;;;;;;;0.22;0.22;;;;;;;4.81;89.50;98904.53;5105840;28;20016;-71
2020/12/22 10:28:23;;;;;;;0.30;0.30;;;;;;;4.99;88.60;98900.94;5105149;28;20472;-70
2020/12/22 10:30:48;;;;;;;0.30;0.30;;;;;;;4.94;89.08;98895.84;5105804;28;20372;-70
2020/12/22 10:33:14;;;;;;;0.30;0.30;;;;;;;4.93;89.03;98891.56;5105179;28;20020;-70
2020/12/22 10:35:39;;;;;;;0.30;0.30;;;;;;;4.84;89.48;98894.22;5105617;28;20350;-70
2020/12/22 10:38:04;;;;;;;0.30;0.30;;;;;;;5.02;88.80;98882.03;5105701;28;20020;-71
2020/12/22 10:40:30;;;;;;;0.30;0.30;;;;;;;5.01;89.22;98893.22;5105389;28;20092;-69
2020/12/22 10:42:55;;;;;;;0.30;0.30;;;;;;;4.85;89.45;98885.66;5104981;28;20102;-69
2020/12/22 10:45:21;;;;;;;0.30;0.30;;;;;;;4.86;89.58;98877.06;5105427;28;20099;-68
2020/12/22 10:47:46;;;;;;;0.25;0.25;;;;;;;4.82;89.60;98886.50;5105304;28;20397;-69
2020/12/22 10:50:11;;;;;;;0.30;0.30;;;;;;;4.87;89.63;98886.50;5103700;28;20031;-69
2020/12/22 10:52:37;;;;;;;0.30;0.30;;;;;;;5.15;88.59;98888.78;5105284;28;20020;-69
2020/12/22 10:55:03;;;;;;;0.30;0.30;;;;;;;4.92;89.77;98892.41;5103822;28;20023;-73
2020/12/22 10:57:28;;;;;;;0.30;0.30;;;;;;;4.95;89.56;98892.38;5105208;28;20024;-70
2020/12/22 10:59:53;;;;;;;0.30;0.30;;;;;;;4.93;89.74;98883.88;5104752;28;20060;-73
2020/12/22 11:02:19;;;;;;;0.30;0.30;;;;;;;5.06;89.45;98888.88;5104355;28;20019;-71
2020/12/22 11:04:44;;;;;;;0.30;0.30;;;;;;;4.95;89.66;98887.25;5104866;28;20052;-71
2020/12/22 11:07:21;;;;;;;0.30;0.30;;;;;;;4.88;90.35;98875.34;5102794;28;20028;-70
2020/12/22 11:09:47;;;;;;;0.30;0.30;;;;;;;5.11;89.51;98881.09;5104902;28;20279;-74
2020/12/22 11:12:12;;;;;;;0.20;0.20;;;;;;;5.06;89.67;98863.97;5104568;28;20032;-71
2020/12/22 11:14:37;;;;;;;0.30;0.30;;;;;;;5.03;89.82;98884.59;5102514;28;20467;-72
2020/12/22 11:17:03;;;;;;;0.30;0.30;;;;;;;5.26;88.85;98880.06;5104811;28;20036;-71
2020/12/22 11:19:28;;;;;;;0.30;0.30;;;;;;;5.07;89.92;98885.41;5104805;28;20016;-73
2020/12/22 11:21:54;;;;;;;0.30;0.30;;;;;;;5.19;89.43;98884.47;5104875;28;20024;-71
2020/12/22 11:24:19;;;;;;;0.30;0.30;;;;;;;5.16;89.39;98887.91;5104511;28;20027;-72
2020/12/22 11:26:44;;;;;;;0.30;0.30;;;;;;;5.11;89.82;98881.97;5103057;28;20024;-72
2020/12/22 11:29:09;;;;;;;0.30;0.30;;;;;;;5.11;90.18;98874.25;5104266;28;20047;-72
2020/12/22 11:31:35;;;;;;;0.20;0.20;;;;;;;5.11;90.12;98878.53;5104282;28;20016;-72
2020/12/22 11:34:00;;;;;;;0.30;0.30;;;;;;;5.26;89.93;98877.50;5104107;28;20114;-72
2020/12/22 11:36:25;;;;;;;0.30;0.30;;;;;;;5.18;90.23;98875.88;5103495;28;20035;-73
2020/12/22 11:38:51;;;;;;;0.28;0.28;;;;;;;5.15;90.34;98872.47;5100541;28;20019;-72
2020/12/22 11:41:23;;;;;;;0.30;0.30;;;;;;;5.20;90.49;98874.16;5102097;28;20024;-73